createdAt,value
2022-09-23T00:00:32.925Z,21.92
2022-09-23T00:03:02.717Z,21.83
2022-09-23T00:05:29.786Z,22.02
2022-09-23T00:07:56.536Z,22.09
2022-09-23T00:10:23.281Z,19.98
2022-09-23T00:12:50.089Z,17.33
2022-09-23T00:15:16.891Z,17.01
2022-09-23T00:17:43.811Z,19.25
2022-09-23T00:20:10.702Z,20.14
2022-09-23T00:22:37.520Z,20.78
2022-09-23T00:25:04.288Z,21.12
2022-09-23T00:27:31.034Z,21.36
2022-09-23T00:29:57.814Z,21.41
2022-09-23T00:32:24.726Z,21.64
2022-09-23T00:34:52.384Z,21.74
2022-09-23T00:37:19.209Z,21.92
2022-09-23T00:39:46.496Z,21.97
2022-09-23T00:42:13.251Z,22.12
2022-09-23T00:44:40.038Z,22.16
2022-09-23T00:47:06.787Z,22.15
2022-09-23T00:49:33.529Z,22.15
2022-09-23T00:52:00.310Z,21.58
2022-09-23T00:54:27.412Z,18.11
2022-09-23T00:56:54.156Z,17.11
2022-09-23T00:59:21.602Z,18.94
2022-09-23T01:01:49.516Z,20.10
2022-09-23T01:04:16.345Z,20.94
2022-09-23T01:06:43.106Z,21.07
2022-09-23T01:09:09.859Z,21.30
2022-09-23T01:11:37.302Z,21.34
2022-09-23T01:14:04.066Z,21.62
2022-09-23T01:16:30.886Z,21.71
2022-09-23T01:18:57.657Z,21.84
2022-09-23T01:21:24.440Z,21.93
2022-09-23T01:23:52.669Z,21.85
2022-09-23T01:26:20.173Z,22.03
2022-09-23T01:28:46.958Z,21.96
2022-09-23T01:31:13.789Z,21.30
2022-09-23T01:33:40.615Z,17.96
2022-09-23T01:36:07.403Z,16.80
2022-09-23T01:38:34.234Z,18.79
2022-09-23T01:41:01.054Z,20.02
2022-09-23T01:43:28.185Z,20.65
2022-09-23T01:45:56.407Z,21.17
2022-09-23T01:48:23.215Z,21.30
2022-09-23T01:50:56.267Z,21.56
2022-09-23T01:53:23.008Z,21.55
2022-09-23T01:55:50.011Z,21.65
2022-09-23T01:58:16.877Z,21.80
2022-09-23T02:00:43.694Z,21.84
2022-09-23T02:03:12.576Z,21.90
2022-09-23T02:05:39.349Z,22.01
2022-09-23T02:08:06.114Z,22.17
2022-09-23T02:10:32.938Z,22.33
2022-09-23T02:12:59.926Z,20.83
2022-09-23T02:15:26.688Z,17.81
2022-09-23T02:17:53.449Z,17.08
2022-09-23T02:20:20.903Z,19.45
2022-09-23T02:22:47.649Z,20.19
2022-09-23T02:25:17.083Z,20.88
2022-09-23T02:27:43.853Z,21.14
2022-09-23T02:30:10.605Z,21.42
2022-09-23T02:32:37.361Z,21.46
2022-09-23T02:35:04.197Z,21.68
2022-09-23T02:37:31.241Z,21.71
2022-09-23T02:39:58.031Z,21.96
2022-09-23T02:42:24.823Z,21.95
2022-09-23T02:44:51.577Z,22.04
2022-09-23T02:47:18.365Z,22.09
2022-09-23T02:49:45.152Z,22.18
2022-09-23T02:52:13.577Z,22.31
2022-09-23T02:54:40.481Z,19.71
2022-09-23T02:57:07.249Z,17.37
2022-09-23T02:59:34.125Z,17.70
2022-09-23T03:02:00.987Z,19.70
2022-09-23T03:04:31.433Z,20.30
2022-09-23T03:06:58.937Z,21.00
2022-09-23T03:09:25.694Z,21.22
2022-09-23T03:11:52.463Z,21.33
2022-09-23T03:14:19.714Z,21.63
2022-09-23T03:16:47.635Z,21.69
2022-09-23T03:19:14.885Z,21.80
2022-09-23T03:21:41.658Z,21.91
2022-09-23T03:24:08.410Z,22.09
2022-09-23T03:26:35.605Z,22.04
2022-09-23T03:29:02.451Z,22.09
2022-09-23T03:31:29.864Z,21.92
2022-09-23T03:33:56.658Z,18.32
2022-09-23T03:36:46.520Z,16.85
2022-09-23T03:39:13.617Z,18.70
2022-09-23T03:41:40.431Z,20.10
2022-09-23T03:44:07.368Z,20.67
2022-09-23T03:46:35.415Z,20.96
2022-09-23T03:49:02.156Z,21.33
2022-09-23T03:51:28.900Z,21.33
2022-09-23T03:53:55.662Z,21.44
2022-09-23T03:56:22.470Z,21.68
2022-09-23T03:58:49.241Z,21.80
2022-09-23T04:01:16.116Z,21.70
2022-09-23T04:03:43.334Z,21.85
2022-09-23T04:06:10.090Z,21.92
2022-09-23T04:08:36.853Z,21.97
2022-09-23T04:11:04.600Z,22.19
2022-09-23T04:13:31.745Z,22.15
2022-09-23T04:15:58.618Z,19.89
2022-09-23T04:18:25.402Z,17.31
2022-09-23T04:20:52.172Z,17.42
2022-09-23T04:23:19.013Z,19.62
2022-09-23T04:25:45.751Z,20.30
2022-09-23T04:28:12.539Z,20.70
2022-09-23T04:30:41.389Z,20.99
2022-09-23T04:33:08.192Z,21.34
2022-09-23T04:35:39.441Z,21.45
2022-09-23T04:38:07.097Z,21.61
2022-09-23T04:40:34.239Z,21.76
2022-09-23T04:43:01.089Z,21.81
2022-09-23T04:45:27.850Z,21.95
2022-09-23T04:47:55.838Z,22.15
2022-09-23T04:50:22.610Z,22.07
2022-09-23T04:52:49.384Z,22.08
2022-09-23T04:55:16.138Z,21.43
2022-09-23T04:57:43.248Z,18.12
2022-09-23T05:00:12.207Z,16.82
2022-09-23T05:02:39.400Z,18.85
2022-09-23T05:05:06.232Z,20.17
2022-09-23T05:07:33.301Z,20.57
2022-09-23T05:10:00.049Z,21.01
2022-09-23T05:12:26.790Z,21.13
2022-09-23T05:14:53.550Z,21.39
2022-09-23T05:17:20.840Z,21.64
2022-09-23T05:19:47.672Z,21.54
2022-09-23T05:22:14.453Z,21.74
2022-09-23T05:24:41.241Z,21.78
2022-09-23T05:27:07.980Z,21.93
2022-09-23T05:29:34.889Z,22.10
2022-09-23T05:32:01.671Z,22.08
2022-09-23T05:34:28.511Z,22.05
2022-09-23T05:36:55.389Z,21.77
2022-09-23T05:39:22.149Z,18.09
2022-09-23T05:41:48.939Z,17.06
2022-09-23T05:44:15.791Z,18.99
2022-09-23T05:46:42.818Z,20.08
2022-09-23T05:49:10.042Z,20.79
2022-09-23T05:51:36.966Z,21.13
2022-09-23T05:54:04.104Z,21.29
2022-09-23T05:56:31.133Z,21.48
2022-09-23T05:58:57.973Z,21.50
2022-09-23T06:01:25.021Z,21.95
2022-09-23T06:03:51.906Z,21.74
2022-09-23T06:06:18.671Z,21.94
2022-09-23T06:08:45.468Z,22.01
2022-09-23T06:11:12.272Z,22.03
2022-09-23T06:13:39.032Z,21.96
2022-09-23T06:16:05.916Z,22.19
2022-09-23T06:18:32.744Z,21.37
2022-09-23T06:20:59.514Z,17.93
2022-09-23T06:23:26.749Z,16.96
2022-09-23T06:25:54.059Z,19.14
2022-09-23T06:28:20.852Z,20.31
2022-09-23T06:30:48.232Z,20.71
2022-09-23T06:33:15.182Z,21.23
2022-09-23T06:35:49.424Z,21.25
2022-09-23T06:38:19.673Z,21.33
2022-09-23T06:40:47.076Z,21.61
2022-09-23T06:43:14.008Z,21.65
2022-09-23T06:45:40.794Z,21.83
2022-09-23T06:48:08.265Z,21.84
2022-09-23T06:50:35.007Z,22.04
2022-09-23T06:53:02.079Z,22.13
2022-09-23T06:55:28.895Z,22.18
2022-09-23T06:57:55.640Z,22.30
2022-09-23T07:00:22.393Z,21.12
2022-09-23T07:02:49.423Z,17.96
2022-09-23T07:05:17.186Z,18.50
2022-09-23T07:07:43.974Z,20.06
2022-09-23T07:10:11.087Z,20.90
2022-09-23T07:12:37.844Z,21.33
2022-09-23T07:15:04.583Z,21.38
2022-09-23T07:17:31.422Z,21.61
2022-09-23T07:19:58.417Z,21.76
2022-09-23T07:22:25.650Z,21.86
2022-09-23T07:24:55.924Z,22.09
2022-09-23T07:27:22.673Z,22.00
2022-09-23T07:29:49.482Z,22.19
2022-09-23T07:32:16.640Z,21.97
2022-09-23T07:34:44.317Z,18.45
2022-09-23T07:37:11.065Z,17.10
2022-09-23T07:39:39.598Z,18.73
2022-09-23T07:42:06.341Z,20.01
2022-09-23T07:44:33.088Z,20.67
2022-09-23T07:46:59.860Z,20.98
2022-09-23T07:49:26.604Z,21.23
2022-09-23T07:51:53.362Z,21.54
2022-09-23T07:54:20.175Z,21.63
2022-09-23T07:56:46.969Z,21.84
2022-09-23T07:59:15.261Z,21.63
2022-09-23T08:01:42.128Z,21.76
2022-09-23T08:04:08.936Z,21.89
2022-09-23T08:06:36.683Z,21.99
2022-09-23T08:09:03.535Z,22.25
2022-09-23T08:11:31.172Z,22.15
2022-09-23T08:13:57.918Z,21.98
2022-09-23T08:16:24.787Z,18.27
2022-09-23T08:18:51.675Z,17.31
2022-09-23T08:21:18.495Z,19.18
2022-09-23T08:23:46.114Z,20.40
2022-09-23T08:26:20.086Z,20.86
2022-09-23T08:28:48.705Z,21.20
2022-09-23T08:31:15.579Z,21.54
2022-09-23T08:33:42.738Z,21.60
2022-09-23T08:36:09.511Z,21.57
2022-09-23T08:38:36.259Z,21.72
2022-09-23T08:41:02.995Z,21.77
2022-09-23T08:43:29.753Z,21.84
2022-09-23T08:45:56.526Z,22.03
2022-09-23T08:48:23.318Z,22.14
2022-09-23T08:50:50.076Z,22.05
2022-09-23T08:53:16.837Z,18.86
2022-09-23T08:55:43.581Z,18.77
2022-09-23T08:58:24.975Z,19.90
2022-09-23T09:00:52.954Z,20.87
2022-09-23T09:03:19.839Z,21.36
2022-09-23T09:05:53.890Z,21.47
2022-09-23T09:08:24.042Z,21.71
2022-09-23T09:10:50.854Z,21.98
2022-09-23T09:13:18.249Z,22.10
2022-09-23T09:15:45.077Z,22.18
2022-09-23T09:18:12.124Z,22.09
2022-09-23T09:20:38.971Z,18.74
2022-09-23T09:23:05.752Z,18.51
2022-09-23T09:25:34.282Z,19.91
2022-09-23T09:28:01.294Z,20.77
2022-09-23T09:30:28.071Z,21.04
2022-09-23T09:32:54.950Z,21.36
2022-09-23T09:35:21.702Z,21.78
2022-09-23T09:37:48.632Z,21.76
2022-09-23T09:40:16.930Z,21.78
2022-09-23T09:42:43.779Z,22.00
2022-09-23T09:45:10.965Z,22.18
2022-09-23T09:47:37.728Z,22.26
2022-09-23T09:50:04.473Z,19.96
2022-09-23T09:52:31.729Z,18.67
2022-09-23T09:54:59.377Z,18.97
2022-09-23T09:57:32.093Z,20.50
2022-09-23T10:00:02.597Z,21.03
2022-09-23T10:02:29.368Z,21.47
2022-09-23T10:04:56.133Z,21.54
2022-09-23T10:07:22.898Z,21.91
2022-09-23T10:09:49.933Z,21.93
2022-09-23T10:12:18.234Z,22.03
2022-09-23T10:14:45.011Z,22.22
2022-09-23T10:17:11.766Z,22.11
2022-09-23T10:19:38.517Z,19.80
2022-09-23T10:22:05.326Z,19.07
2022-09-23T10:24:32.154Z,19.55
2022-09-23T10:26:59.005Z,20.99
2022-09-23T10:29:25.864Z,21.38
2022-09-23T10:31:53.686Z,21.56
2022-09-23T10:34:20.682Z,21.72
2022-09-23T10:36:47.713Z,21.91
2022-09-23T10:39:33.141Z,22.05
2022-09-23T10:42:25.999Z,22.10
2022-09-23T10:45:11.238Z,22.32
2022-09-23T10:47:38.039Z,20.01
2022-09-23T10:50:04.888Z,18.48
2022-09-23T10:52:31.958Z,18.90
2022-09-23T10:54:58.723Z,20.56
2022-09-23T10:57:37.986Z,20.97
2022-09-23T11:00:04.776Z,21.47
2022-09-23T11:02:31.518Z,21.61
2022-09-23T11:04:58.277Z,21.84
2022-09-23T11:07:25.072Z,21.82
2022-09-23T11:09:51.812Z,22.09
2022-09-23T11:12:18.550Z,22.07
2022-09-23T11:14:45.378Z,22.22
2022-09-23T11:17:14.606Z,19.81
2022-09-23T11:19:45.470Z,18.69
2022-09-23T11:22:15.823Z,19.27
2022-09-23T11:24:45.089Z,20.72
2022-09-23T11:27:11.849Z,21.47
2022-09-23T11:29:42.442Z,21.62
2022-09-23T11:32:09.192Z,21.77
2022-09-23T11:34:35.948Z,22.00
2022-09-23T11:37:03.441Z,21.99
2022-09-23T11:39:30.192Z,22.14
2022-09-23T11:41:56.951Z,22.14
2022-09-23T11:44:23.994Z,20.15
2022-09-23T11:46:50.841Z,18.69
2022-09-23T11:49:17.643Z,19.03
2022-09-23T11:51:44.482Z,20.75
2022-09-23T11:54:11.229Z,21.36
2022-09-23T11:56:40.854Z,21.61
2022-09-23T11:59:09.348Z,21.76
2022-09-23T12:01:38.227Z,21.89
2022-09-23T12:04:16.296Z,21.94
2022-09-23T12:06:44.998Z,22.10
2022-09-23T12:09:11.779Z,22.10
2022-09-23T12:11:38.583Z,22.30
2022-09-23T12:14:05.345Z,19.66
2022-09-23T12:16:32.196Z,18.60
2022-09-23T12:18:59.077Z,19.22
2022-09-23T12:21:46.212Z,20.85
2022-09-23T12:24:18.973Z,21.39
2022-09-23T12:26:46.497Z,21.53
2022-09-23T12:29:13.308Z,21.66
2022-09-23T12:31:42.031Z,21.79
2022-09-23T12:34:10.913Z,22.07
2022-09-23T12:36:38.269Z,22.08
2022-09-23T12:39:05.073Z,22.10
2022-09-23T12:41:36.938Z,19.98
2022-09-23T12:44:03.681Z,18.84
2022-09-23T12:46:30.458Z,19.27
2022-09-23T12:48:57.763Z,20.85
2022-09-23T12:51:24.536Z,21.24
2022-09-23T12:53:52.023Z,21.57
2022-09-23T12:56:18.787Z,21.72
2022-09-23T12:58:45.538Z,21.98
2022-09-23T13:01:12.359Z,22.09
2022-09-23T13:03:57.845Z,22.01
2022-09-23T13:06:39.578Z,22.28
2022-09-23T13:09:06.337Z,19.47
2022-09-23T13:11:33.111Z,18.76
2022-09-23T13:14:00.507Z,19.61
2022-09-23T13:16:27.335Z,20.92
2022-09-23T13:18:54.506Z,21.40
2022-09-23T13:21:21.277Z,21.60
2022-09-23T13:23:48.042Z,21.82
2022-09-23T13:26:14.796Z,22.05
2022-09-23T13:28:41.542Z,22.04
2022-09-23T13:31:08.317Z,22.29
2022-09-23T13:33:35.059Z,22.22
2022-09-23T13:36:06.613Z,19.78
2022-09-23T13:38:35.350Z,18.53
2022-09-23T13:41:02.097Z,19.22
2022-09-23T13:43:29.239Z,20.78
2022-09-23T13:45:56.023Z,21.33
2022-09-23T13:48:23.602Z,21.62
2022-09-23T13:50:50.429Z,21.86
2022-09-23T13:53:17.226Z,21.80
2022-09-23T13:55:44.786Z,22.06
2022-09-23T13:58:13.737Z,22.27
2022-09-23T14:00:40.555Z,22.25
2022-09-23T14:03:07.342Z,22.12
2022-09-23T14:05:34.126Z,18.94
2022-09-23T14:08:00.915Z,18.58
2022-09-23T14:10:27.712Z,19.80
2022-09-23T14:12:54.451Z,21.02
2022-09-23T14:15:21.232Z,21.70
2022-09-23T14:17:47.985Z,21.72
2022-09-23T14:20:14.749Z,21.91
2022-09-23T14:22:41.518Z,22.11
2022-09-23T14:25:08.277Z,22.05
2022-09-23T14:27:36.355Z,22.23
2022-09-23T14:30:03.129Z,22.32
2022-09-23T14:32:30.292Z,19.74
2022-09-23T14:34:57.038Z,18.83
2022-09-23T14:37:42.370Z,19.61
2022-09-23T14:40:09.213Z,21.03
2022-09-23T14:42:36.001Z,21.45
2022-09-23T14:45:02.808Z,21.73
2022-09-23T14:47:29.553Z,22.05
2022-09-23T14:50:28.753Z,21.88
2022-09-23T14:52:55.496Z,21.99
2022-09-23T14:55:22.241Z,22.23
2022-09-23T14:57:49.113Z,22.22
2022-09-23T15:00:15.895Z,19.18
2022-09-23T15:02:42.658Z,18.75
2022-09-23T15:05:09.742Z,20.07
2022-09-23T15:07:36.585Z,20.88
2022-09-23T15:10:04.539Z,21.30
2022-09-23T15:12:31.296Z,21.55
2022-09-23T15:14:58.431Z,21.77
2022-09-23T15:17:25.520Z,21.94
2022-09-23T15:19:52.551Z,22.01
2022-09-23T15:22:19.370Z,22.19
2022-09-23T15:24:46.223Z,20.84
2022-09-23T15:27:13.062Z,18.99
2022-09-23T15:29:39.864Z,19.02
2022-09-23T15:32:07.863Z,20.91
2022-09-23T15:34:34.763Z,21.33
2022-09-23T15:37:01.685Z,21.68
2022-09-23T15:39:35.720Z,21.64
2022-09-23T15:42:03.257Z,21.85
2022-09-23T15:44:30.063Z,22.08
2022-09-23T15:46:56.918Z,22.06
2022-09-23T15:49:23.865Z,22.29
2022-09-23T15:51:51.975Z,21.36
2022-09-23T15:54:19.355Z,18.83
2022-09-23T15:56:46.111Z,19.09
2022-09-23T15:59:13.531Z,20.57
2022-09-23T16:01:40.414Z,21.42
2022-09-23T16:04:07.245Z,21.59
2022-09-23T16:06:35.934Z,21.67
2022-09-23T16:09:02.738Z,21.84
2022-09-23T16:11:31.641Z,22.04
2022-09-23T16:13:58.442Z,22.13
2022-09-23T16:16:27.599Z,22.17
2022-09-23T16:18:54.469Z,21.70
2022-09-23T16:21:21.235Z,18.92
2022-09-23T16:23:49.066Z,18.98
2022-09-23T16:26:15.881Z,20.64
2022-09-23T16:28:42.693Z,21.26
2022-09-23T16:31:11.161Z,21.44
2022-09-23T16:33:38.246Z,21.84
2022-09-23T16:36:04.983Z,21.98
2022-09-23T16:38:32.473Z,22.09
2022-09-23T16:41:00.350Z,22.37
2022-09-23T16:43:32.570Z,20.18
2022-09-23T16:45:59.429Z,18.75
2022-09-23T16:48:26.290Z,19.18
2022-09-23T16:50:53.884Z,20.75
2022-09-23T16:53:20.645Z,21.02
2022-09-23T16:55:47.427Z,21.48
2022-09-23T16:58:14.174Z,21.73
2022-09-23T17:01:04.329Z,21.93
2022-09-23T17:03:40.790Z,22.08
2022-09-23T17:06:08.167Z,22.03
2022-09-23T17:08:35.289Z,22.08
2022-09-23T17:11:02.933Z,22.21
2022-09-23T17:13:29.732Z,19.38
2022-09-23T17:15:56.687Z,18.77
2022-09-23T17:18:23.674Z,19.76
2022-09-23T17:20:50.452Z,21.01
2022-09-23T17:23:17.204Z,21.40
2022-09-23T17:25:43.949Z,21.52
2022-09-23T17:28:10.712Z,21.86
2022-09-23T17:30:39.174Z,21.98
2022-09-23T17:33:06.042Z,22.01
2022-09-23T17:35:32.793Z,22.16
2022-09-23T17:37:59.544Z,22.17
2022-09-23T17:40:26.400Z,21.87
2022-09-23T17:42:53.232Z,18.70
2022-09-23T17:45:19.979Z,18.55
2022-09-23T17:47:54.745Z,20.36
2022-09-23T17:50:24.259Z,21.13
2022-09-23T17:52:51.007Z,21.33
2022-09-23T17:55:18.046Z,21.78
2022-09-23T17:57:44.810Z,21.85
2022-09-23T18:00:11.568Z,22.09
2022-09-23T18:02:38.420Z,22.02
2022-09-23T18:05:05.334Z,21.98
2022-09-23T18:07:32.080Z,22.20
2022-09-23T18:09:58.846Z,19.26
2022-09-23T18:12:25.611Z,18.70
2022-09-23T18:14:52.358Z,19.62
2022-09-23T18:17:19.131Z,20.87
2022-09-23T18:19:49.037Z,21.36
2022-09-23T18:22:15.802Z,21.57
2022-09-23T18:24:42.601Z,21.74
2022-09-23T18:27:09.498Z,21.87
2022-09-23T18:29:36.289Z,22.04
2022-09-23T18:32:03.163Z,22.07
2022-09-23T18:34:30.024Z,22.14
2022-09-23T18:36:57.078Z,22.31
2022-09-23T18:39:23.853Z,20.86
2022-09-23T18:41:50.945Z,18.70
2022-09-23T18:44:18.889Z,18.61
2022-09-23T18:46:45.641Z,20.47
2022-09-23T18:49:31.005Z,21.22
2022-09-23T18:51:57.771Z,21.42
2022-09-23T18:54:24.572Z,21.94
2022-09-23T18:56:52.630Z,21.94
2022-09-23T18:59:20.456Z,22.06
2022-09-23T19:01:47.343Z,22.13
2022-09-23T19:04:14.249Z,22.37
2022-09-23T19:06:41.054Z,21.13
2022-09-23T19:09:07.819Z,18.54
2022-09-23T19:11:36.166Z,18.37
2022-09-23T19:14:03.199Z,20.18
2022-09-23T19:16:32.805Z,20.98
2022-09-23T19:18:59.755Z,21.35
2022-09-23T19:21:26.519Z,21.72
2022-09-23T19:23:53.340Z,21.92
2022-09-23T19:26:20.380Z,21.91
2022-09-23T19:28:47.149Z,22.07
2022-09-23T19:31:14.990Z,22.16
2022-09-23T19:33:41.813Z,22.33
2022-09-23T19:36:09.600Z,22.42
2022-09-23T19:38:36.409Z,20.95
2022-09-23T19:41:03.496Z,18.31
2022-09-23T19:43:30.277Z,18.08
2022-09-23T19:45:57.017Z,20.09
2022-09-23T19:48:23.773Z,20.64
2022-09-23T19:50:50.674Z,21.25
2022-09-23T19:53:17.423Z,21.73
2022-09-23T19:55:44.211Z,21.81
2022-09-23T19:58:10.989Z,21.90
2022-09-23T20:00:37.778Z,21.96
2022-09-23T20:03:04.797Z,21.96
2022-09-23T20:05:31.591Z,22.13
2022-09-23T20:08:01.518Z,22.09
2022-09-23T20:10:28.313Z,21.73
2022-09-23T20:12:55.862Z,18.35
2022-09-23T20:15:23.165Z,17.79
2022-09-23T20:17:51.296Z,19.79
2022-09-23T20:20:18.072Z,20.71
2022-09-23T20:22:45.139Z,20.94
2022-09-23T20:25:14.722Z,21.50
2022-09-23T20:27:41.710Z,21.55
2022-09-23T20:30:08.640Z,21.86
2022-09-23T20:32:36.890Z,21.92
2022-09-23T20:35:03.721Z,22.08
2022-09-23T20:37:33.012Z,22.12
2022-09-23T20:40:00.682Z,22.17
2022-09-23T20:42:27.531Z,22.08
2022-09-23T20:44:54.765Z,21.64
2022-09-23T20:47:21.509Z,18.55
2022-09-23T20:49:48.802Z,17.56
2022-09-23T20:52:16.210Z,19.52
2022-09-23T20:54:42.949Z,20.44
2022-09-23T20:57:09.717Z,20.88
2022-09-23T20:59:36.476Z,21.30
2022-09-23T21:02:03.274Z,21.58
2022-09-23T21:04:30.054Z,21.81
2022-09-23T21:06:58.132Z,21.85
2022-09-23T21:09:24.895Z,21.90
2022-09-23T21:11:51.724Z,21.96
2022-09-23T21:14:20.271Z,22.13
2022-09-23T21:16:48.241Z,22.19
2022-09-23T21:19:15.001Z,22.20
2022-09-23T21:21:41.758Z,21.43
2022-09-23T21:24:36.132Z,18.51
2022-09-23T21:26:55.349Z,17.45
2022-09-23T21:29:22.142Z,19.33
2022-09-23T21:31:49.339Z,20.30
2022-09-23T21:36:43.920Z,21.16
2022-09-23T21:39:10.677Z,21.58
2022-09-23T21:41:37.477Z,21.64
2022-09-23T21:44:04.579Z,21.73
2022-09-23T21:46:33.561Z,21.91
2022-09-23T21:49:02.198Z,22.02
2022-09-23T21:51:28.956Z,21.93
2022-09-23T21:53:56.699Z,22.29
2022-09-23T21:56:23.466Z,21.86
2022-09-23T21:58:50.279Z,18.68
2022-09-23T22:01:17.105Z,17.31
2022-09-23T22:03:44.047Z,18.61
2022-09-23T22:06:10.822Z,19.96
2022-09-23T22:08:37.641Z,20.76
2022-09-23T22:11:04.412Z,21.22
2022-09-23T22:13:31.291Z,21.51
2022-09-23T22:15:58.075Z,21.73
2022-09-23T22:18:24.850Z,21.60
2022-09-23T22:20:51.672Z,21.73
2022-09-23T22:23:18.417Z,21.92
2022-09-23T22:25:45.219Z,22.02
2022-09-23T22:28:44.190Z,22.21
2022-09-23T22:31:29.595Z,22.36
2022-09-23T22:33:56.388Z,22.00
2022-09-23T22:36:23.169Z,22.27
2022-09-23T22:38:52.316Z,19.91
2022-09-23T22:41:22.529Z,17.74
2022-09-23T22:43:49.970Z,17.73
2022-09-23T22:46:22.015Z,19.63
2022-09-23T22:48:50.196Z,20.48
2022-09-23T22:51:16.998Z,20.92
2022-09-23T22:53:43.766Z,21.17
2022-09-23T22:56:10.506Z,21.29
2022-09-23T22:58:37.258Z,21.65
2022-09-23T23:01:04.192Z,21.86
2022-09-23T23:03:32.900Z,21.82
2022-09-23T23:05:59.745Z,22.01
2022-09-23T23:08:27.653Z,22.09
2022-09-23T23:10:54.918Z,22.23
2022-09-23T23:13:21.815Z,22.25
2022-09-23T23:15:48.625Z,21.90
2022-09-23T23:18:15.501Z,18.57
2022-09-23T23:20:42.642Z,17.20
2022-09-23T23:23:09.444Z,18.68
2022-09-23T23:25:36.199Z,20.04
2022-09-23T23:28:05.501Z,20.70
2022-09-23T23:30:32.428Z,20.92
2022-09-23T23:32:59.178Z,21.30
2022-09-23T23:35:25.929Z,21.57
2022-09-23T23:37:52.697Z,21.66
2022-09-23T23:40:22.644Z,21.81
2022-09-23T23:42:49.486Z,21.80
2022-09-23T23:45:16.566Z,21.94
2022-09-23T23:47:43.914Z,22.01
2022-09-23T23:50:10.825Z,22.17
2022-09-23T23:52:37.864Z,22.20
2022-09-23T23:55:04.614Z,22.50
2022-09-23T23:57:31.371Z,20.77
2022-09-23T23:59:58.616Z,17.89
